WMKK/KUL METAR and TAF weather

Enter ICAO airport designator
Station Type Date Time Source
WMKK METAR 2019/05/23 18:30 UTC NOAA

WMKK 231830Z 03003KT 9000 FEW017CB SCT140 BKN290 27/24 Q1010 NOSIG


Station Type Date Time Source
WMKK Decoded METAR 2019/05/23 18:30 UTC NOAA

Sepang/KL International Airport, Malaysia (WMKK) 02-44N 101-42E 22M
May 23, 2019 - 02:30 PM EDT / 2019.05.23 1830 UTC
Wind: from the NNE (030 degrees) at 3 MPH (3 KT):0
Visibility: 5 mile(s):0
Sky conditions: mostly cloudy
Weather: Cumulonimbus clouds observed
Temperature: 80 F (27 C)
Dew Point: 75 F (24 C)
Relative Humidity: 83%
Pressure (altimeter): 29.83 in. Hg (1010 hPa)
ob: WMKK 231830Z 03003KT 9000 FEW017CB SCT140 BKN290 27/24 Q1010 NOSIG
cycle: 18

Station Type Date Time Source
WMKK TAF 2019/05/23 18:08 UTC NOAA

TAF WMKK 231700Z 2318/2500 VRB03KT 9999 FEW017CB
BECMG 2402/2404 17005KT
TEMPO 2407/2411 4000 TSRA FEW010 FEW017CB SCT018
BECMG 2413/2415 VRB03KT FEW030
BECMG 2417/2419 FEW017CB

Example: see airport list